Forside
METAR-TAF:

METAR-TAF

Lufthavne :

Caracas, Venezuela

Breddekreds: 10-36N, længdekreds: 066-59W, højde: 43 m

Aktuelle vejr

Denne rapport blev lavet for 1 time og 4 minutter siden, kl. 10:00 UTC
Vind stille
Temperatur 24°C
Fugtighed 89%
Tryk 1013 hPa
Sigt 10 km eller mere
Nogle få skyer i en højde af 1600 ft

METAR: SVMI 141000Z 00000KT 9999 FEW016 24/22 Q1013

Tid: 07:04 (11:04 UTC)

Vejrudsigter

Denne rapport blev lavet for 7 timer og 4 minutter siden, kl. 04:00 UTC
Foreløbig gælder fra 14 på 06 UTC til 15 på 06 UTC
Vind kt fra nord
Sigt 10 km eller mere
Spredte skyer i en højde af 1600 ft
Midlertidig
fra 14 på 06 UTC til 14 på 10 UTC
Nogle få skyer i en højde af 1600 ft

TAF: SVMI 140400Z 1406/1506 00000KT 9999 SCT016 TX33/18Z TN25/08Z TEMPO 1406/1410 FEW016

Vejrobservationer og prognoser fra mere end 4000 lufthavne (METAR og TAF).

De gule og røde prikker repræsenterer de meteorologiske stationer.

Flyt musen over at se navnet på stationen.

Så klik over at se vejr observationer og prognoser.

At skifte det kort: Klik på de grønne knapper med et sort kors for at zoome ind; på den grønne knap med en bindestreg for at zoome ud; eller på de grønne pile for tilstødende kort.


METAR-TAF: